Pagrindinis puslapis
METAR-TAF:

METAR-TAF

Oro uostai :

Parauapebas, Para, Brazilija

platuma: 06-07S, ilguma: 050-00W, Aukštis: 621 m

Dabartinis oras

Ataskaita buvo paskelbta 39 minutes, ne 20:00 UTC
Ramus vėjas
Temperatūra 26°C
Drėgmė 79%
Slėgis 1012 hPa
Matomumas 10 km arba daugiau
Mažai debesys ne aukštis 2700 ft, aukštai iškilę kamuoliniai debesys.

METAR: SBCJ 152000Z 00000KT 9999 FEW027TCU 26/22 Q1012

Laikas: 17:39 (20:39 UTC)

Prognozė

Ataskaita buvo paskelbta 5 valandos ir 39 minutes, ne 15:00 UTC
Prognozė galioja nuo 15 metu 18 UTC su 16 metu 06 UTC
Vėjas 5 kt iš Rytų/Šiaurės Rytų
Matomumas: 8000 m
Išsisklaidę debesys ne aukštis 2500 ft
Tapsmas
nuo 15 metu 21 UTC su 15 metu 23 UTC
Vėjas kt iš Šiaurės
Mažai debesys ne aukštis 2000 ft

TAF: SBCJ 151500Z 1518/1606 06005KT 8000 SCT025 TX29/1518Z TN24/1606Z BECMG 1521/1523 00000KT FEW020 RMK PGU

Orai ataskaitas ir orų prognozės (METAR, TAF).

turimą stotys yra geltonos ir raudonos taškus žemėlapyje.

Perkelti pele per norėdami pamatyti stoties vardą.

Tada spustelėkite, norėdami matyti oro stebėjimo ir prognozės.

Norėdami pakeisti žemėlapį: spustelėkite ant žalios mygtukų su juodo kryžiaus žemyn,; žalią mygtuką su brūkšneliu, jei norite nutolinti; arba žalių rodyklių gretimoms žemėlapius.


METAR-TAF: